Time,TemperatureF,DewpointF,PressureIn,WindDirection,WindDirectionDegrees,WindSpeedMPH,WindSpeedGustMPH,Humidity,HourlyPrecipIn,Conditions,Clouds,dailyrainin,SoftwareType,DateUTC
2013-04-01 00:03:00,37.0,-99.9,-100.00,WNW,301,8.0,12.0,-999,0.00,,,0.00,,2013-04-01 05:03:00,
2013-04-01 00:13:00,37.0,-99.9,-100.00,WNW,301,8.0,12.0,-999,0.00,,,0.00,,2013-04-01 05:13:00,
2013-04-01 00:23:00,37.0,-99.9,-100.00,WNW,301,8.0,12.0,-999,0.00,,,0.00,,2013-04-01 05:23:00,
2013-04-01 00:33:00,36.0,-99.9,-100.00,WNW,288,6.0,8.0,-999,0.00,,,0.00,,2013-04-01 05:33:00,
2013-04-01 00:43:00,36.0,-99.9,-100.00,WNW,288,6.0,8.0,-999,0.00,,,0.00,,2013-04-01 05:43:00,
2013-04-01 00:53:00,36.0,-99.9,-100.00,WNW,288,6.0,8.0,-999,0.00,,,0.00,,2013-04-01 05:53:00,
2013-04-01 01:00:00,34.0,-99.9,-100.00,WNW,297,7.0,11.0,-999,0.00,,,0.00,,2013-04-01 06:00:00,
2013-04-01 01:02:00,35.0,-99.9,-100.00,NW,307,7.0,11.0,-999,0.00,,,0.00,,2013-04-01 06:02:00,
2013-04-01 01:13:00,35.0,-99.9,-100.00,NW,307,7.0,11.0,-999,0.00,,,0.00,,2013-04-01 06:13:00,
2013-04-01 01:23:00,35.0,-99.9,-100.00,NW,307,7.0,11.0,-999,0.00,,,0.00,,2013-04-01 06:23:00,
2013-04-01 01:34:00,34.0,-99.9,-100.00,WNW,297,7.0,11.0,-999,0.00,,,0.00,,2013-04-01 06:34:00,
2013-04-01 01:43:00,34.0,-99.9,-100.00,WNW,297,7.0,11.0,-999,0.00,,,0.00,,2013-04-01 06:43:00,
2013-04-01 01:53:00,34.0,-99.9,-100.00,WNW,297,7.0,11.0,-999,0.00,,,0.00,,2013-04-01 06:53:00,
2013-04-01 02:32:00,33.0,-99.9,-100.00,NW,310,7.0,11.0,-999,0.00,,,0.00,,2013-04-01 07:32:00,
2013-04-01 02:43:00,33.0,-99.9,-100.00,NW,310,7.0,11.0,-999,0.00,,,0.00,,2013-04-01 07:43:00,
2013-04-01 02:53:00,33.0,-99.9,-100.00,NW,310,7.0,11.0,-999,0.00,,,0.00,,2013-04-01 07:53:00,
2013-04-01 03:03:00,32.0,-99.9,-100.00,WNW,288,5.0,8.0,-999,0.00,,,0.00,,2013-04-01 08:03:00,
2013-04-01 03:13:00,32.0,-99.9,-100.00,WNW,288,5.0,8.0,-999,0.00,,,0.00,,2013-04-01 08:13:00,
2013-04-01 03:23:00,32.0,-99.9,-100.00,WNW,288,5.0,8.0,-999,0.00,,,0.00,,2013-04-01 08:23:00,
2013-04-01 03:32:00,32.0,-99.9,-100.00,NW,312,6.0,9.0,-999,0.00,,,0.00,,2013-04-01 08:32:00,
2013-04-01 03:44:00,32.0,-99.9,-100.00,NW,312,6.0,9.0,-999,0.00,,,0.00,,2013-04-01 08:44:00,
2013-04-01 03:53:00,32.0,-99.9,-100.00,NW,312,6.0,9.0,-999,0.00,,,0.00,,2013-04-01 08:53:00,
2013-04-01 04:03:00,31.0,-99.9,-100.00,WNW,295,7.0,13.0,-999,0.00,,,0.00,,2013-04-01 09:03:00,
2013-04-01 04:12:00,31.0,-99.9,-100.00,WNW,295,7.0,13.0,-999,0.00,,,0.00,,2013-04-01 09:12:00,
2013-04-01 04:23:00,31.0,-99.9,-100.00,WNW,295,7.0,13.0,-999,0.00,,,0.00,,2013-04-01 09:23:00,
2013-04-01 04:33:00,31.0,-99.9,-100.00,WNW,283,4.0,9.0,-999,0.00,,,0.00,,2013-04-01 09:33:00,
2013-04-01 04:43:00,31.0,-99.9,-100.00,WNW,283,4.0,9.0,-999,0.00,,,0.00,,2013-04-01 09:43:00,
2013-04-01 04:54:00,31.0,-99.9,-100.00,WNW,283,4.0,9.0,-999,0.00,,,0.00,,2013-04-01 09:54:00,
2013-04-01 05:03:00,30.0,-99.9,-100.00,WNW,303,6.0,10.0,-999,0.00,,,0.00,,2013-04-01 10:03:00,
2013-04-01 05:13:00,30.0,-99.9,-100.00,WNW,303,6.0,10.0,-999,0.00,,,0.00,,2013-04-01 10:13:00,
2013-04-01 05:24:00,30.0,-99.9,-100.00,WNW,303,6.0,10.0,-999,0.00,,,0.00,,2013-04-01 10:24:00,
2013-04-01 05:34:00,30.0,-99.9,-100.00,NW,304,6.0,9.0,-999,0.00,,,0.00,,2013-04-01 10:34:00,
2013-04-01 05:43:00,30.0,-99.9,-100.00,NW,304,6.0,9.0,-999,0.00,,,0.00,,2013-04-01 10:43:00,
2013-04-01 05:54:00,30.0,-99.9,-100.00,NW,304,6.0,9.0,-999,0.00,,,0.00,,2013-04-01 10:54:00,
2013-04-01 06:03:00,29.0,-99.9,-100.00,WNW,283,3.0,8.0,-999,0.00,,,0.00,,2013-04-01 11:03:00,
2013-04-01 06:13:00,29.0,-99.9,-100.00,WNW,283,3.0,8.0,-999,0.00,,,0.00,,2013-04-01 11:13:00,
2013-04-01 06:23:00,29.0,-99.9,-100.00,WNW,283,3.0,8.0,-999,0.00,,,0.00,,2013-04-01 11:23:00,
2013-04-01 06:33:00,29.0,-99.9,-100.00,West,278,4.0,10.0,-999,0.00,,,0.00,,2013-04-01 11:33:00,
2013-04-01 06:43:00,29.0,-99.9,-100.00,West,278,4.0,10.0,-999,0.00,,,0.00,,2013-04-01 11:43:00,
2013-04-01 06:53:00,29.0,-99.9,-100.00,West,278,4.0,10.0,-999,0.00,,,0.00,,2013-04-01 11:53:00,
2013-04-01 07:03:00,29.0,-99.9,-100.00,NW,311,4.0,7.0,-999,0.00,,,0.00,,2013-04-01 12:03:00,
2013-04-01 07:12:00,29.0,-99.9,-100.00,NW,311,4.0,7.0,-999,0.00,,,0.00,,2013-04-01 12:12:00,
2013-04-01 07:23:00,29.0,-99.9,-100.00,NW,311,4.0,7.0,-999,0.00,,,0.00,,2013-04-01 12:23:00,
2013-04-01 07:33:00,28.0,-99.9,-100.00,WNW,296,5.0,8.0,-999,0.00,,,0.00,,2013-04-01 12:33:00,
2013-04-01 07:43:00,28.0,-99.9,-100.00,WNW,296,5.0,8.0,-999,0.00,,,0.00,,2013-04-01 12:43:00,
2013-04-01 07:53:00,28.0,-99.9,-100.00,WNW,296,5.0,8.0,-999,0.00,,,0.00,,2013-04-01 12:53:00,
2013-04-01 08:03:00,29.0,-99.9,-100.00,NW,306,5.0,8.0,-999,0.00,,,0.00,,2013-04-01 13:03:00,
2013-04-01 08:13:00,29.0,-99.9,-100.00,NW,306,5.0,8.0,-999,0.00,,,0.00,,2013-04-01 13:13:00,
2013-04-01 08:23:00,29.0,-99.9,-100.00,NW,306,5.0,8.0,-999,0.00,,,0.00,,2013-04-01 13:23:00,
2013-04-01 08:33:00,30.0,-99.9,-100.00,NW,314,7.0,13.0,-999,0.00,,,0.00,,2013-04-01 13:33:00,
2013-04-01 08:43:00,30.0,-99.9,-100.00,NW,314,7.0,13.0,-999,0.00,,,0.00,,2013-04-01 13:43:00,
2013-04-01 08:53:00,30.0,-99.9,-100.00,NW,314,7.0,13.0,-999,0.00,,,0.00,,2013-04-01 13:53:00,
2013-04-01 09:04:00,30.0,-99.9,-100.00,NW,321,8.0,15.0,-999,0.00,,,0.00,,2013-04-01 14:04:00,
2013-04-01 09:13:00,30.0,-99.9,-100.00,NW,321,8.0,15.0,-999,0.00,,,0.00,,2013-04-01 14:13:00,
2013-04-01 09:23:00,30.0,-99.9,-100.00,NW,321,8.0,15.0,-999,0.00,,,0.00,,2013-04-01 14:23:00,
2013-04-01 09:33:00,31.0,-99.9,-100.00,NW,312,8.0,11.0,-999,0.00,,,0.00,,2013-04-01 14:33:00,
2013-04-01 09:43:00,31.0,-99.9,-100.00,NW,312,8.0,11.0,-999,0.00,,,0.00,,2013-04-01 14:43:00,
2013-04-01 09:53:00,31.0,-99.9,-100.00,NW,312,8.0,11.0,-999,0.00,,,0.00,,2013-04-01 14:53:00,
2013-04-01 10:03:00,31.0,-99.9,-100.00,NW,307,10.0,13.0,-999,0.00,,,0.00,,2013-04-01 15:03:00,
2013-04-01 10:13:00,31.0,-99.9,-100.00,NW,307,10.0,13.0,-999,0.00,,,0.00,,2013-04-01 15:13:00,
2013-04-01 10:23:00,31.0,-99.9,-100.00,NW,307,10.0,13.0,-999,0.00,,,0.00,,2013-04-01 15:23:00,
2013-04-01 10:30:00,32.0,-99.9,-100.00,NW,325,7.0,13.0,-999,0.00,,,0.00,,2013-04-01 15:30:00,
2013-04-01 10:34:00,32.0,-99.9,-100.00,NW,312,10.0,14.0,-999,0.00,,,0.00,,2013-04-01 15:34:00,
2013-04-01 10:44:00,32.0,-99.9,-100.00,NW,312,10.0,14.0,-999,0.00,,,0.00,,2013-04-01 15:44:00,
2013-04-01 10:54:00,32.0,-99.9,-100.00,NW,312,10.0,14.0,-999,0.00,,,0.00,,2013-04-01 15:54:00,
2013-04-01 11:03:00,32.0,-99.9,-100.00,NW,325,7.0,13.0,-999,0.00,,,0.00,,2013-04-01 16:03:00,
2013-04-01 11:13:00,32.0,-99.9,-100.00,NW,325,7.0,13.0,-999,0.00,,,0.00,,2013-04-01 16:13:00,
2013-04-01 11:24:00,32.0,-99.9,-100.00,NW,325,7.0,13.0,-999,0.00,,,0.00,,2013-04-01 16:24:00,
2013-04-01 12:30:00,34.0,-99.9,-100.00,NW,309,8.0,13.0,-999,0.00,,,0.00,,2013-04-01 17:30:00,
2013-04-01 12:32:00,35.0,-99.9,-100.00,WNW,290,8.0,15.0,-999,0.00,,,0.00,,2013-04-01 17:32:00,
2013-04-01 12:42:00,35.0,-99.9,-100.00,WNW,290,8.0,15.0,-999,0.00,,,0.00,,2013-04-01 17:42:00,
2013-04-01 12:54:00,35.0,-99.9,-100.00,WNW,290,8.0,15.0,-999,0.00,,,0.00,,2013-04-01 17:54:00,
2013-04-01 13:03:00,34.0,-99.9,-100.00,NW,309,8.0,13.0,-999,0.00,,,0.00,,2013-04-01 18:03:00,
2013-04-01 13:13:00,34.0,-99.9,-100.00,NW,309,8.0,13.0,-999,0.00,,,0.00,,2013-04-01 18:13:00,
2013-04-01 13:22:00,34.0,-99.9,-100.00,NW,309,8.0,13.0,-999,0.00,,,0.00,,2013-04-01 18:22:00,
2013-04-01 13:43:00,36.0,-99.9,-100.00,WNW,299,10.0,17.0,-999,0.00,,,0.00,,2013-04-01 18:43:00,
2013-04-01 13:54:00,36.0,-99.9,-100.00,WNW,299,10.0,17.0,-999,0.00,,,0.00,,2013-04-01 18:54:00,
2013-04-01 14:04:00,37.0,-99.9,-100.00,WNW,296,13.0,21.0,-999,0.00,,,0.00,,2013-04-01 19:04:00,
2013-04-01 14:13:00,37.0,-99.9,-100.00,WNW,296,13.0,21.0,-999,0.00,,,0.00,,2013-04-01 19:13:00,
2013-04-01 14:23:00,37.0,-99.9,-100.00,WNW,296,13.0,21.0,-999,0.00,,,0.00,,2013-04-01 19:23:00,
2013-04-01 14:30:00,37.0,-99.9,-100.00,WNW,287,12.0,21.0,-999,0.00,,,0.00,,2013-04-01 19:30:00,
2013-04-01 14:33:00,37.0,-99.9,-100.00,NW,311,10.0,19.0,-999,0.00,,,0.00,,2013-04-01 19:33:00,
2013-04-01 14:43:00,37.0,-99.9,-100.00,NW,311,10.0,19.0,-999,0.00,,,0.00,,2013-04-01 19:43:00,
2013-04-01 14:53:00,37.0,-99.9,-100.00,NW,311,10.0,19.0,-999,0.00,,,0.00,,2013-04-01 19:53:00,
2013-04-01 15:03:00,37.0,-99.9,-100.00,WNW,287,12.0,21.0,-999,0.00,,,0.00,,2013-04-01 20:03:00,
2013-04-01 15:13:00,37.0,-99.9,-100.00,WNW,287,12.0,21.0,-999,0.00,,,0.00,,2013-04-01 20:13:00,
2013-04-01 15:23:00,37.0,-99.9,-100.00,WNW,287,12.0,21.0,-999,0.00,,,0.00,,2013-04-01 20:23:00,
2013-04-01 15:43:00,37.0,-99.9,-100.00,NW,321,9.0,15.0,-999,0.00,,,0.00,,2013-04-01 20:43:00,
2013-04-01 15:53:00,37.0,-99.9,-100.00,NW,321,9.0,15.0,-999,0.00,,,0.00,,2013-04-01 20:53:00,
2013-04-01 16:03:00,38.0,-99.9,-100.00,WNW,294,9.0,18.0,-999,0.00,,,0.00,,2013-04-01 21:03:00,
2013-04-01 16:12:00,38.0,-99.9,-100.00,WNW,294,9.0,18.0,-999,0.00,,,0.00,,2013-04-01 21:12:00,
2013-04-01 16:23:00,38.0,-99.9,-100.00,WNW,294,9.0,18.0,-999,0.00,,,0.00,,2013-04-01 21:23:00,
2013-04-01 16:33:00,38.0,-99.9,-100.00,WNW,303,9.0,17.0,-999,0.00,,,0.00,,2013-04-01 21:33:00,
2013-04-01 16:44:00,38.0,-99.9,-100.00,WNW,303,9.0,17.0,-999,0.00,,,0.00,,2013-04-01 21:44:00,
2013-04-01 16:53:00,38.0,-99.9,-100.00,WNW,303,9.0,17.0,-999,0.00,,,0.00,,2013-04-01 21:53:00,
2013-04-01 17:03:00,38.0,-99.9,-100.00,NNW,334,12.0,18.0,-999,0.00,,,0.00,,2013-04-01 22:03:00,
2013-04-01 17:13:00,38.0,-99.9,-100.00,NNW,334,12.0,18.0,-999,0.00,,,0.00,,2013-04-01 22:13:00,
2013-04-01 17:23:00,38.0,-99.9,-100.00,NNW,334,12.0,18.0,-999,0.00,,,0.00,,2013-04-01 22:23:00,
2013-04-01 17:33:00,38.0,-99.9,-100.00,NW,316,10.0,16.0,-999,0.00,,,0.00,,2013-04-01 22:33:00,
2013-04-01 17:44:00,38.0,-99.9,-100.00,NW,316,10.0,16.0,-999,0.00,,,0.00,,2013-04-01 22:44:00,
2013-04-01 17:53:00,38.0,-99.9,-100.00,NW,316,10.0,16.0,-999,0.00,,,0.00,,2013-04-01 22:53:00,
2013-04-01 18:03:00,38.0,-99.9,-100.00,NW,314,9.0,17.0,-999,0.00,,,0.00,,2013-04-01 23:03:00,
2013-04-01 18:12:00,38.0,-99.9,-100.00,NW,314,9.0,17.0,-999,0.00,,,0.00,,2013-04-01 23:12:00,
2013-04-01 18:23:00,38.0,-99.9,-100.00,NW,314,9.0,17.0,-999,0.00,,,0.00,,2013-04-01 23:23:00,
2013-04-01 18:32:00,38.0,-99.9,-100.00,NW,307,8.0,13.0,-999,0.00,,,0.00,,2013-04-01 23:32:00,
2013-04-01 18:43:00,38.0,-99.9,-100.00,NW,307,8.0,13.0,-999,0.00,,,0.00,,2013-04-01 23:43:00,
2013-04-01 18:53:00,38.0,-99.9,-100.00,NW,307,8.0,13.0,-999,0.00,,,0.00,,2013-04-01 23:53:00,
2013-04-01 19:00:00,37.0,-99.9,-100.00,NW,321,7.0,11.0,-999,0.00,,,0.00,,2013-04-02 00:00:00,
2013-04-01 19:03:00,37.0,-99.9,-100.00,WNW,289,10.0,17.0,-999,0.00,,,0.00,,2013-04-02 00:03:00,
2013-04-01 19:12:00,37.0,-99.9,-100.00,WNW,289,10.0,17.0,-999,0.00,,,0.00,,2013-04-02 00:12:00,
2013-04-01 19:23:00,37.0,-99.9,-100.00,WNW,289,10.0,17.0,-999,0.00,,,0.00,,2013-04-02 00:23:00,
2013-04-01 19:33:00,37.0,-99.9,-100.00,NW,321,7.0,11.0,-999,0.00,,,0.00,,2013-04-02 00:33:00,
2013-04-01 19:43:00,37.0,-99.9,-100.00,NW,321,7.0,11.0,-999,0.00,,,0.00,,2013-04-02 00:43:00,
2013-04-01 19:53:00,37.0,-99.9,-100.00,NW,321,7.0,11.0,-999,0.00,,,0.00,,2013-04-02 00:53:00,
2013-04-01 20:30:00,34.0,-99.9,-100.00,WNW,288,6.0,13.0,-999,0.00,,,0.00,,2013-04-02 01:30:00,
2013-04-01 20:32:00,34.0,-99.9,-100.00,WNW,293,5.0,12.0,-999,0.00,,,0.00,,2013-04-02 01:32:00,
2013-04-01 20:43:00,34.0,-99.9,-100.00,WNW,293,5.0,12.0,-999,0.00,,,0.00,,2013-04-02 01:43:00,
2013-04-01 20:53:00,34.0,-99.9,-100.00,WNW,293,5.0,12.0,-999,0.00,,,0.00,,2013-04-02 01:53:00,
2013-04-01 21:03:00,34.0,-99.9,-100.00,WNW,288,6.0,13.0,-999,0.00,,,0.00,,2013-04-02 02:03:00,
2013-04-01 21:13:00,34.0,-99.9,-100.00,WNW,288,6.0,13.0,-999,0.00,,,0.00,,2013-04-02 02:13:00,
2013-04-01 21:23:00,34.0,-99.9,-100.00,WNW,288,6.0,13.0,-999,0.00,,,0.00,,2013-04-02 02:23:00,
2013-04-01 21:30:00,33.0,-99.9,-100.00,WNW,287,6.0,10.0,-999,0.00,,,0.00,,2013-04-02 02:30:00,
2013-04-01 21:43:00,33.0,-99.9,-100.00,NW,312,6.0,10.0,-999,0.00,,,0.00,,2013-04-02 02:43:00,
2013-04-01 21:53:00,33.0,-99.9,-100.00,NW,312,6.0,10.0,-999,0.00,,,0.00,,2013-04-02 02:53:00,
2013-04-01 22:03:00,33.0,-99.9,-100.00,WNW,287,6.0,10.0,-999,0.00,,,0.00,,2013-04-02 03:03:00,
2013-04-01 22:13:00,33.0,-99.9,-100.00,WNW,287,6.0,10.0,-999,0.00,,,0.00,,2013-04-02 03:13:00,
2013-04-01 22:22:00,33.0,-99.9,-100.00,WNW,287,6.0,10.0,-999,0.00,,,0.00,,2013-04-02 03:22:00,
2013-04-01 22:30:00,32.0,-99.9,-100.00,WNW,303,5.0,8.0,-999,0.00,,,0.00,,2013-04-02 03:30:00,
2013-04-01 22:44:00,32.0,-99.9,-100.00,WNW,283,3.0,5.0,-999,0.00,,,0.00,,2013-04-02 03:44:00,
2013-04-01 22:53:00,32.0,-99.9,-100.00,WNW,283,3.0,5.0,-999,0.00,,,0.00,,2013-04-02 03:53:00,
2013-04-01 23:03:00,32.0,-99.9,-100.00,WNW,303,5.0,8.0,-999,0.00,,,0.00,,2013-04-02 04:03:00,
2013-04-01 23:13:00,32.0,-99.9,-100.00,WNW,303,5.0,8.0,-999,0.00,,,0.00,,2013-04-02 04:13:00,
2013-04-01 23:23:00,32.0,-99.9,-100.00,WNW,303,5.0,8.0,-999,0.00,,,0.00,,2013-04-02 04:23:00,
2013-04-01 23:43:00,31.0,-99.9,-100.00,WNW,300,3.0,5.0,-999,0.00,,,0.00,,2013-04-02 04:43:00,
2013-04-01 23:53:00,31.0,-99.9,-100.00,WNW,300,3.0,5.0,-999,0.00,,,0.00,,2013-04-02 04:53:00,